sensor_id;sensor_type;location;lat;lon;timestamp;P1;durP1;ratioP1;P2;durP2;ratioP2
2488;SDS011;1255;48.716;9.124;2023-06-22T00:01:11;7.30;;;5.40;;
2488;SDS011;1255;48.716;9.124;2023-06-22T00:03:39;6.20;;;5.60;;
2488;SDS011;1255;48.716;9.124;2023-06-22T00:06:06;6.80;;;6.10;;
2488;SDS011;1255;48.716;9.124;2023-06-22T00:08:32;6.13;;;5.50;;
2488;SDS011;1255;48.716;9.124;2023-06-22T00:10:59;5.90;;;5.17;;
2488;SDS011;1255;48.716;9.124;2023-06-22T00:13:26;6.63;;;5.50;;
2488;SDS011;1255;48.716;9.124;2023-06-22T00:15:53;6.83;;;6.17;;
2488;SDS011;1255;48.716;9.124;2023-06-22T00:18:20;5.83;;;4.93;;
2488;SDS011;1255;48.716;9.124;2023-06-22T00:20:48;5.97;;;5.10;;
2488;SDS011;1255;48.716;9.124;2023-06-22T00:23:14;6.33;;;5.50;;
2488;SDS011;1255;48.716;9.124;2023-06-22T00:25:42;6.87;;;5.30;;
2488;SDS011;1255;48.716;9.124;2023-06-22T00:28:09;6.83;;;5.87;;
2488;SDS011;1255;48.716;9.124;2023-06-22T00:30:36;8.13;;;6.00;;
2488;SDS011;1255;48.716;9.124;2023-06-22T00:33:02;8.50;;;5.63;;
2488;SDS011;1255;48.716;9.124;2023-06-22T00:35:32;7.70;;;6.27;;
2488;SDS011;1255;48.716;9.124;2023-06-22T00:38:01;5.97;;;5.37;;
2488;SDS011;1255;48.716;9.124;2023-06-22T00:40:30;5.97;;;5.27;;
2488;SDS011;1255;48.716;9.124;2023-06-22T00:42:57;7.00;;;5.90;;
2488;SDS011;1255;48.716;9.124;2023-06-22T00:45:24;5.97;;;5.30;;
2488;SDS011;1255;48.716;9.124;2023-06-22T00:47:51;7.60;;;5.87;;
2488;SDS011;1255;48.716;9.124;2023-06-22T00:50:19;5.67;;;5.03;;
2488;SDS011;1255;48.716;9.124;2023-06-22T00:52:48;6.10;;;4.60;;
2488;SDS011;1255;48.716;9.124;2023-06-22T00:55:19;5.90;;;4.93;;
2488;SDS011;1255;48.716;9.124;2023-06-22T00:57:47;5.83;;;5.20;;
2488;SDS011;1255;48.716;9.124;2023-06-22T01:00:14;5.80;;;5.20;;
2488;SDS011;1255;48.716;9.124;2023-06-22T01:02:44;5.50;;;5.00;;
2488;SDS011;1255;48.716;9.124;2023-06-22T01:05:12;5.87;;;5.20;;
2488;SDS011;1255;48.716;9.124;2023-06-22T01:07:39;7.63;;;5.67;;
2488;SDS011;1255;48.716;9.124;2023-06-22T01:10:14;6.27;;;5.67;;
2488;SDS011;1255;48.716;9.124;2023-06-22T01:12:48;5.70;;;5.20;;
2488;SDS011;1255;48.716;9.124;2023-06-22T01:15:18;7.50;;;5.90;;
2488;SDS011;1255;48.716;9.124;2023-06-22T01:17:49;6.43;;;5.80;;
2488;SDS011;1255;48.716;9.124;2023-06-22T01:20:18;6.17;;;5.33;;
2488;SDS011;1255;48.716;9.124;2023-06-22T01:22:54;6.10;;;5.13;;
2488;SDS011;1255;48.716;9.124;2023-06-22T01:25:29;7.90;;;5.27;;
2488;SDS011;1255;48.716;9.124;2023-06-22T01:28:05;9.07;;;5.23;;
2488;SDS011;1255;48.716;9.124;2023-06-22T01:30:50;7.00;;;6.03;;
2488;SDS011;1255;48.716;9.124;2023-06-22T01:33:28;5.43;;;4.57;;
2488;SDS011;1255;48.716;9.124;2023-06-22T01:35:56;6.40;;;5.43;;
2488;SDS011;1255;48.716;9.124;2023-06-22T01:38:23;6.40;;;5.80;;
2488;SDS011;1255;48.716;9.124;2023-06-22T01:40:51;7.40;;;5.60;;
2488;SDS011;1255;48.716;9.124;2023-06-22T01:43:19;5.03;;;4.53;;
2488;SDS011;1255;48.716;9.124;2023-06-22T01:45:49;6.30;;;5.30;;
2488;SDS011;1255;48.716;9.124;2023-06-22T01:48:17;7.53;;;6.43;;
2488;SDS011;1255;48.716;9.124;2023-06-22T01:50:44;7.77;;;5.13;;
2488;SDS011;1255;48.716;9.124;2023-06-22T01:53:11;5.80;;;5.00;;
2488;SDS011;1255;48.716;9.124;2023-06-22T01:55:38;6.07;;;5.33;;
2488;SDS011;1255;48.716;9.124;2023-06-22T01:58:05;7.20;;;5.60;;
2488;SDS011;1255;48.716;9.124;2023-06-22T02:00:33;5.73;;;5.20;;
2488;SDS011;1255;48.716;9.124;2023-06-22T02:03:08;5.73;;;5.13;;
2488;SDS011;1255;48.716;9.124;2023-06-22T02:05:41;5.80;;;5.17;;
2488;SDS011;1255;48.716;9.124;2023-06-22T02:08:16;5.83;;;5.23;;
2488;SDS011;1255;48.716;9.124;2023-06-22T02:10:46;5.23;;;4.73;;
2488;SDS011;1255;48.716;9.124;2023-06-22T02:13:14;7.10;;;5.03;;
2488;SDS011;1255;48.716;9.124;2023-06-22T02:15:43;5.77;;;5.17;;
2488;SDS011;1255;48.716;9.124;2023-06-22T02:18:12;6.40;;;5.00;;
2488;SDS011;1255;48.716;9.124;2023-06-22T02:20:39;5.67;;;5.17;;
2488;SDS011;1255;48.716;9.124;2023-06-22T02:23:06;6.20;;;5.60;;
2488;SDS011;1255;48.716;9.124;2023-06-22T02:25:33;7.17;;;5.00;;
2488;SDS011;1255;48.716;9.124;2023-06-22T02:28:00;7.37;;;5.40;;
2488;SDS011;1255;48.716;9.124;2023-06-22T02:30:27;7.57;;;5.23;;
2488;SDS011;1255;48.716;9.124;2023-06-22T02:32:54;5.70;;;5.10;;
2488;SDS011;1255;48.716;9.124;2023-06-22T02:35:26;6.07;;;5.30;;
2488;SDS011;1255;48.716;9.124;2023-06-22T02:37:56;6.53;;;5.80;;
2488;SDS011;1255;48.716;9.124;2023-06-22T02:40:24;6.20;;;5.60;;
2488;SDS011;1255;48.716;9.124;2023-06-22T02:42:51;6.63;;;5.50;;
2488;SDS011;1255;48.716;9.124;2023-06-22T02:45:17;8.13;;;6.17;;
2488;SDS011;1255;48.716;9.124;2023-06-22T02:47:44;6.57;;;5.60;;
2488;SDS011;1255;48.716;9.124;2023-06-22T02:50:12;5.70;;;5.17;;
2488;SDS011;1255;48.716;9.124;2023-06-22T02:52:40;6.27;;;5.23;;
2488;SDS011;1255;48.716;9.124;2023-06-22T02:55:07;6.93;;;5.40;;
2488;SDS011;1255;48.716;9.124;2023-06-22T02:57:34;7.30;;;6.27;;
2488;SDS011;1255;48.716;9.124;2023-06-22T03:00:02;5.83;;;5.30;;
2488;SDS011;1255;48.716;9.124;2023-06-22T03:02:40;6.73;;;5.57;;
2488;SDS011;1255;48.716;9.124;2023-06-22T03:05:07;6.73;;;5.47;;
2488;SDS011;1255;48.716;9.124;2023-06-22T03:07:40;5.70;;;4.03;;
2488;SDS011;1255;48.716;9.124;2023-06-22T03:10:08;5.53;;;5.03;;
2488;SDS011;1255;48.716;9.124;2023-06-22T03:12:35;6.47;;;5.00;;
2488;SDS011;1255;48.716;9.124;2023-06-22T03:15:02;5.67;;;5.17;;
2488;SDS011;1255;48.716;9.124;2023-06-22T03:17:30;5.43;;;4.73;;
2488;SDS011;1255;48.716;9.124;2023-06-22T03:19:56;7.27;;;5.07;;
2488;SDS011;1255;48.716;9.124;2023-06-22T03:22:23;5.93;;;5.33;;
2488;SDS011;1255;48.716;9.124;2023-06-22T03:24:51;6.00;;;4.70;;
2488;SDS011;1255;48.716;9.124;2023-06-22T03:27:18;5.30;;;4.80;;
2488;SDS011;1255;48.716;9.124;2023-06-22T03:29:44;7.23;;;5.97;;
2488;SDS011;1255;48.716;9.124;2023-06-22T03:32:11;5.93;;;5.20;;
2488;SDS011;1255;48.716;9.124;2023-06-22T03:34:38;6.03;;;5.43;;
2488;SDS011;1255;48.716;9.124;2023-06-22T03:37:05;6.90;;;5.50;;
2488;SDS011;1255;48.716;9.124;2023-06-22T03:39:31;5.30;;;4.80;;
2488;SDS011;1255;48.716;9.124;2023-06-22T03:41:59;7.27;;;5.37;;
2488;SDS011;1255;48.716;9.124;2023-06-22T03:44:26;6.07;;;5.47;;
2488;SDS011;1255;48.716;9.124;2023-06-22T03:46:53;8.63;;;6.43;;
2488;SDS011;1255;48.716;9.124;2023-06-22T03:49:20;6.40;;;5.20;;
2488;SDS011;1255;48.716;9.124;2023-06-22T03:51:47;6.37;;;4.97;;
2488;SDS011;1255;48.716;9.124;2023-06-22T03:54:13;5.80;;;5.23;;
2488;SDS011;1255;48.716;9.124;2023-06-22T03:56:40;10.03;;;5.97;;
2488;SDS011;1255;48.716;9.124;2023-06-22T03:59:08;5.90;;;5.30;;
2488;SDS011;1255;48.716;9.124;2023-06-22T04:01:35;7.43;;;5.50;;
2488;SDS011;1255;48.716;9.124;2023-06-22T04:04:02;6.53;;;5.83;;
2488;SDS011;1255;48.716;9.124;2023-06-22T04:06:29;7.00;;;5.50;;
2488;SDS011;1255;48.716;9.124;2023-06-22T04:08:56;6.13;;;5.53;;
2488;SDS011;1255;48.716;9.124;2023-06-22T04:11:23;8.07;;;5.90;;
2488;SDS011;1255;48.716;9.124;2023-06-22T04:13:50;6.37;;;5.77;;
2488;SDS011;1255;48.716;9.124;2023-06-22T04:16:18;6.53;;;5.10;;
2488;SDS011;1255;48.716;9.124;2023-06-22T04:18:44;7.27;;;5.83;;
2488;SDS011;1255;48.716;9.124;2023-06-22T04:21:11;6.10;;;5.53;;
2488;SDS011;1255;48.716;9.124;2023-06-22T04:23:39;6.20;;;5.53;;
2488;SDS011;1255;48.716;9.124;2023-06-22T04:26:05;7.37;;;6.10;;
2488;SDS011;1255;48.716;9.124;2023-06-22T04:28:32;5.20;;;4.70;;
2488;SDS011;1255;48.716;9.124;2023-06-22T04:31:00;7.20;;;6.50;;
2488;SDS011;1255;48.716;9.124;2023-06-22T04:33:28;7.20;;;6.50;;
2488;SDS011;1255;48.716;9.124;2023-06-22T04:35:55;7.13;;;5.47;;
2488;SDS011;1255;48.716;9.124;2023-06-22T04:38:22;6.30;;;5.30;;
2488;SDS011;1255;48.716;9.124;2023-06-22T04:40:49;7.10;;;5.50;;
2488;SDS011;1255;48.716;9.124;2023-06-22T04:43:16;6.07;;;5.30;;
2488;SDS011;1255;48.716;9.124;2023-06-22T04:45:43;6.57;;;5.73;;
2488;SDS011;1255;48.716;9.124;2023-06-22T04:48:10;5.60;;;5.00;;
2488;SDS011;1255;48.716;9.124;2023-06-22T04:50:42;7.27;;;5.63;;
2488;SDS011;1255;48.716;9.124;2023-06-22T04:53:09;7.23;;;5.87;;
2488;SDS011;1255;48.716;9.124;2023-06-22T04:55:37;7.23;;;6.07;;
2488;SDS011;1255;48.716;9.124;2023-06-22T04:58:06;7.30;;;6.30;;
2488;SDS011;1255;48.716;9.124;2023-06-22T05:00:33;6.97;;;6.03;;
2488;SDS011;1255;48.716;9.124;2023-06-22T05:03:01;6.20;;;5.60;;
2488;SDS011;1255;48.716;9.124;2023-06-22T05:05:28;7.07;;;5.67;;
2488;SDS011;1255;48.716;9.124;2023-06-22T05:07:56;7.30;;;6.00;;
2488;SDS011;1255;48.716;9.124;2023-06-22T05:10:25;6.27;;;5.30;;
2488;SDS011;1255;48.716;9.124;2023-06-22T05:12:52;6.47;;;5.87;;
2488;SDS011;1255;48.716;9.124;2023-06-22T05:15:18;8.47;;;5.67;;
2488;SDS011;1255;48.716;9.124;2023-06-22T05:17:45;6.27;;;4.90;;
2488;SDS011;1255;48.716;9.124;2023-06-22T05:20:12;5.87;;;5.07;;
2488;SDS011;1255;48.716;9.124;2023-06-22T05:22:42;5.63;;;4.50;;
2488;SDS011;1255;48.716;9.124;2023-06-22T05:25:11;4.80;;;4.30;;
2488;SDS011;1255;48.716;9.124;2023-06-22T05:27:38;5.67;;;5.07;;
2488;SDS011;1255;48.716;9.124;2023-06-22T05:30:05;6.50;;;4.57;;
2488;SDS011;1255;48.716;9.124;2023-06-22T05:32:33;8.07;;;5.43;;
2488;SDS011;1255;48.716;9.124;2023-06-22T05:35:00;5.37;;;4.47;;
2488;SDS011;1255;48.716;9.124;2023-06-22T05:37:26;5.87;;;4.90;;
2488;SDS011;1255;48.716;9.124;2023-06-22T05:39:54;4.90;;;4.50;;
2488;SDS011;1255;48.716;9.124;2023-06-22T05:42:23;6.40;;;4.83;;
2488;SDS011;1255;48.716;9.124;2023-06-22T05:44:50;9.10;;;5.30;;
2488;SDS011;1255;48.716;9.124;2023-06-22T05:47:18;7.33;;;4.93;;
2488;SDS011;1255;48.716;9.124;2023-06-22T05:49:44;7.40;;;4.77;;
2488;SDS011;1255;48.716;9.124;2023-06-22T05:52:11;6.63;;;4.30;;
2488;SDS011;1255;48.716;9.124;2023-06-22T05:54:38;5.23;;;4.17;;
2488;SDS011;1255;48.716;9.124;2023-06-22T05:57:06;7.00;;;4.97;;
2488;SDS011;1255;48.716;9.124;2023-06-22T05:59:34;6.63;;;4.30;;
2488;SDS011;1255;48.716;9.124;2023-06-22T06:02:01;6.37;;;4.33;;
2488;SDS011;1255;48.716;9.124;2023-06-22T06:04:28;6.70;;;4.40;;
2488;SDS011;1255;48.716;9.124;2023-06-22T06:06:55;5.20;;;4.03;;
2488;SDS011;1255;48.716;9.124;2023-06-22T06:09:22;7.70;;;4.63;;
2488;SDS011;1255;48.716;9.124;2023-06-22T06:11:48;6.30;;;4.27;;
2488;SDS011;1255;48.716;9.124;2023-06-22T06:14:15;4.73;;;3.83;;
2488;SDS011;1255;48.716;9.124;2023-06-22T06:16:43;5.43;;;4.53;;
2488;SDS011;1255;48.716;9.124;2023-06-22T06:19:10;6.80;;;5.20;;
2488;SDS011;1255;48.716;9.124;2023-06-22T06:21:37;5.07;;;4.13;;
2488;SDS011;1255;48.716;9.124;2023-06-22T06:24:04;5.20;;;4.00;;
2488;SDS011;1255;48.716;9.124;2023-06-22T06:26:31;5.67;;;4.03;;
2488;SDS011;1255;48.716;9.124;2023-06-22T06:28:59;4.67;;;3.67;;
2488;SDS011;1255;48.716;9.124;2023-06-22T06:31:27;4.63;;;3.70;;
2488;SDS011;1255;48.716;9.124;2023-06-22T06:33:55;4.27;;;3.70;;
2488;SDS011;1255;48.716;9.124;2023-06-22T06:36:22;4.90;;;3.93;;
2488;SDS011;1255;48.716;9.124;2023-06-22T06:38:48;4.27;;;3.87;;
2488;SDS011;1255;48.716;9.124;2023-06-22T06:41:15;6.70;;;3.83;;
2488;SDS011;1255;48.716;9.124;2023-06-22T06:43:42;4.40;;;4.00;;
2488;SDS011;1255;48.716;9.124;2023-06-22T06:46:09;7.80;;;4.20;;
2488;SDS011;1255;48.716;9.124;2023-06-22T06:48:36;5.53;;;3.90;;
2488;SDS011;1255;48.716;9.124;2023-06-22T06:51:04;5.77;;;4.03;;
2488;SDS011;1255;48.716;9.124;2023-06-22T06:53:34;6.83;;;4.40;;
2488;SDS011;1255;48.716;9.124;2023-06-22T06:56:01;5.20;;;4.00;;
2488;SDS011;1255;48.716;9.124;2023-06-22T06:58:28;4.63;;;4.10;;
2488;SDS011;1255;48.716;9.124;2023-06-22T07:00:55;5.30;;;4.10;;
2488;SDS011;1255;48.716;9.124;2023-06-22T07:03:22;4.80;;;3.20;;
2488;SDS011;1255;48.716;9.124;2023-06-22T07:05:49;5.83;;;3.60;;
2488;SDS011;1255;48.716;9.124;2023-06-22T07:08:17;4.43;;;4.03;;
2488;SDS011;1255;48.716;9.124;2023-06-22T07:10:44;4.63;;;3.67;;
2488;SDS011;1255;48.716;9.124;2023-06-22T07:13:10;5.10;;;3.87;;
2488;SDS011;1255;48.716;9.124;2023-06-22T07:15:37;5.57;;;3.57;;
2488;SDS011;1255;48.716;9.124;2023-06-22T07:18:04;5.80;;;4.30;;
2488;SDS011;1255;48.716;9.124;2023-06-22T07:20:31;3.83;;;3.43;;
2488;SDS011;1255;48.716;9.124;2023-06-22T07:22:58;5.40;;;3.73;;
2488;SDS011;1255;48.716;9.124;2023-06-22T07:25:26;5.57;;;4.17;;
2488;SDS011;1255;48.716;9.124;2023-06-22T07:27:57;5.63;;;4.00;;
2488;SDS011;1255;48.716;9.124;2023-06-22T07:30:25;4.50;;;3.90;;
2488;SDS011;1255;48.716;9.124;2023-06-22T07:32:52;3.63;;;3.30;;
2488;SDS011;1255;48.716;9.124;2023-06-22T07:35:19;5.60;;;3.87;;
2488;SDS011;1255;48.716;9.124;2023-06-22T07:37:45;3.37;;;3.07;;
2488;SDS011;1255;48.716;9.124;2023-06-22T07:40:12;3.90;;;3.47;;
2488;SDS011;1255;48.716;9.124;2023-06-22T07:42:40;5.67;;;3.70;;
2488;SDS011;1255;48.716;9.124;2023-06-22T07:45:08;6.97;;;3.80;;
2488;SDS011;1255;48.716;9.124;2023-06-22T07:47:35;4.43;;;3.20;;
2488;SDS011;1255;48.716;9.124;2023-06-22T07:50:02;4.60;;;3.63;;
2488;SDS011;1255;48.716;9.124;2023-06-22T07:52:29;3.70;;;3.40;;
2488;SDS011;1255;48.716;9.124;2023-06-22T07:54:56;5.17;;;3.80;;
2488;SDS011;1255;48.716;9.124;2023-06-22T07:57:23;5.17;;;4.03;;
2488;SDS011;1255;48.716;9.124;2023-06-22T07:59:58;5.13;;;3.17;;
2488;SDS011;1255;48.716;9.124;2023-06-22T08:02:25;4.23;;;3.23;;
2488;SDS011;1255;48.716;9.124;2023-06-22T08:04:52;5.10;;;3.50;;
2488;SDS011;1255;48.716;9.124;2023-06-22T08:07:19;4.10;;;3.70;;
2488;SDS011;1255;48.716;9.124;2023-06-22T08:09:45;4.67;;;3.70;;
2488;SDS011;1255;48.716;9.124;2023-06-22T08:12:13;4.13;;;3.73;;
2488;SDS011;1255;48.716;9.124;2023-06-22T08:14:41;4.80;;;3.77;;
2488;SDS011;1255;48.716;9.124;2023-06-22T08:17:09;4.50;;;3.50;;
2488;SDS011;1255;48.716;9.124;2023-06-22T08:19:36;4.70;;;3.90;;
2488;SDS011;1255;48.716;9.124;2023-06-22T08:22:03;5.30;;;3.60;;
2488;SDS011;1255;48.716;9.124;2023-06-22T08:24:30;4.87;;;3.50;;
2488;SDS011;1255;48.716;9.124;2023-06-22T08:26:57;4.67;;;3.60;;
2488;SDS011;1255;48.716;9.124;2023-06-22T08:29:24;4.37;;;3.90;;
2488;SDS011;1255;48.716;9.124;2023-06-22T08:31:51;3.90;;;3.37;;
2488;SDS011;1255;48.716;9.124;2023-06-22T08:34:19;4.43;;;3.90;;
2488;SDS011;1255;48.716;9.124;2023-06-22T08:36:46;4.87;;;4.30;;
2488;SDS011;1255;48.716;9.124;2023-06-22T08:39:16;7.10;;;3.97;;
2488;SDS011;1255;48.716;9.124;2023-06-22T08:41:43;4.17;;;3.80;;
2488;SDS011;1255;48.716;9.124;2023-06-22T08:44:10;4.33;;;3.77;;
2488;SDS011;1255;48.716;9.124;2023-06-22T08:46:36;4.00;;;3.47;;
2488;SDS011;1255;48.716;9.124;2023-06-22T08:49:05;5.03;;;4.27;;
2488;SDS011;1255;48.716;9.124;2023-06-22T08:51:34;6.43;;;4.07;;
2488;SDS011;1255;48.716;9.124;2023-06-22T08:54:00;5.60;;;4.27;;
2488;SDS011;1255;48.716;9.124;2023-06-22T08:56:27;4.10;;;3.70;;
2488;SDS011;1255;48.716;9.124;2023-06-22T08:58:54;3.83;;;3.53;;
2488;SDS011;1255;48.716;9.124;2023-06-22T09:01:21;7.70;;;3.63;;
2488;SDS011;1255;48.716;9.124;2023-06-22T09:03:48;5.90;;;4.07;;
2488;SDS011;1255;48.716;9.124;2023-06-22T09:06:19;5.60;;;4.10;;
2488;SDS011;1255;48.716;9.124;2023-06-22T09:08:47;5.10;;;4.20;;
2488;SDS011;1255;48.716;9.124;2023-06-22T09:11:14;7.37;;;4.40;;
2488;SDS011;1255;48.716;9.124;2023-06-22T09:13:41;3.90;;;3.50;;
2488;SDS011;1255;48.716;9.124;2023-06-22T09:16:08;7.93;;;4.13;;
2488;SDS011;1255;48.716;9.124;2023-06-22T09:18:35;4.77;;;4.30;;
2488;SDS011;1255;48.716;9.124;2023-06-22T09:21:02;6.83;;;3.77;;
2488;SDS011;1255;48.716;9.124;2023-06-22T09:23:28;6.03;;;4.13;;
2488;SDS011;1255;48.716;9.124;2023-06-22T09:25:56;5.00;;;4.50;;
2488;SDS011;1255;48.716;9.124;2023-06-22T09:28:23;5.03;;;4.57;;
2488;SDS011;1255;48.716;9.124;2023-06-22T09:30:50;4.83;;;3.90;;
2488;SDS011;1255;48.716;9.124;2023-06-22T09:33:24;4.83;;;3.57;;
2488;SDS011;1255;48.716;9.124;2023-06-22T09:35:50;5.30;;;4.00;;
2488;SDS011;1255;48.716;9.124;2023-06-22T09:38:17;4.50;;;4.03;;
2488;SDS011;1255;48.716;9.124;2023-06-22T09:40:44;6.50;;;4.17;;
2488;SDS011;1255;48.716;9.124;2023-06-22T09:43:12;5.67;;;4.20;;
2488;SDS011;1255;48.716;9.124;2023-06-22T09:45:39;4.27;;;3.80;;
2488;SDS011;1255;48.716;9.124;2023-06-22T09:48:05;4.83;;;4.23;;
2488;SDS011;1255;48.716;9.124;2023-06-22T09:50:32;6.13;;;4.40;;
2488;SDS011;1255;48.716;9.124;2023-06-22T09:52:59;6.50;;;4.33;;
2488;SDS011;1255;48.716;9.124;2023-06-22T09:55:25;7.30;;;3.50;;
2488;SDS011;1255;48.716;9.124;2023-06-22T09:57:52;5.87;;;4.57;;
2488;SDS011;1255;48.716;9.124;2023-06-22T10:00:21;6.27;;;4.60;;
2488;SDS011;1255;48.716;9.124;2023-06-22T10:02:48;4.33;;;3.93;;
2488;SDS011;1255;48.716;9.124;2023-06-22T10:05:15;5.03;;;3.83;;
2488;SDS011;1255;48.716;9.124;2023-06-22T10:07:42;6.40;;;3.93;;
2488;SDS011;1255;48.716;9.124;2023-06-22T10:10:09;5.00;;;4.00;;
2488;SDS011;1255;48.716;9.124;2023-06-22T10:12:36;6.20;;;4.67;;
2488;SDS011;1255;48.716;9.124;2023-06-22T10:15:07;8.63;;;4.10;;
2488;SDS011;1255;48.716;9.124;2023-06-22T10:17:35;5.43;;;4.07;;
2488;SDS011;1255;48.716;9.124;2023-06-22T10:20:02;6.60;;;4.40;;
2488;SDS011;1255;48.716;9.124;2023-06-22T10:22:35;4.43;;;4.00;;
2488;SDS011;1255;48.716;9.124;2023-06-22T10:25:02;5.97;;;4.53;;
2488;SDS011;1255;48.716;9.124;2023-06-22T10:27:29;6.13;;;4.70;;
2488;SDS011;1255;48.716;9.124;2023-06-22T10:29:56;5.47;;;4.30;;
2488;SDS011;1255;48.716;9.124;2023-06-22T10:32:23;4.93;;;4.43;;
2488;SDS011;1255;48.716;9.124;2023-06-22T10:34:51;6.03;;;4.63;;
2488;SDS011;1255;48.716;9.124;2023-06-22T10:37:18;6.30;;;4.03;;
2488;SDS011;1255;48.716;9.124;2023-06-22T10:39:45;4.80;;;4.30;;
2488;SDS011;1255;48.716;9.124;2023-06-22T10:42:11;4.50;;;4.10;;
2488;SDS011;1255;48.716;9.124;2023-06-22T10:44:38;4.50;;;3.77;;
2488;SDS011;1255;48.716;9.124;2023-06-22T10:47:06;5.00;;;4.60;;
2488;SDS011;1255;48.716;9.124;2023-06-22T10:49:33;6.07;;;4.57;;
2488;SDS011;1255;48.716;9.124;2023-06-22T10:52:01;4.37;;;3.97;;
2488;SDS011;1255;48.716;9.124;2023-06-22T10:54:28;8.93;;;4.60;;
2488;SDS011;1255;48.716;9.124;2023-06-22T10:56:55;4.90;;;3.90;;
2488;SDS011;1255;48.716;9.124;2023-06-22T10:59:21;6.33;;;4.67;;
2488;SDS011;1255;48.716;9.124;2023-06-22T11:01:48;6.83;;;4.43;;
2488;SDS011;1255;48.716;9.124;2023-06-22T11:04:15;4.60;;;3.53;;
2488;SDS011;1255;48.716;9.124;2023-06-22T11:06:42;7.30;;;4.83;;
2488;SDS011;1255;48.716;9.124;2023-06-22T11:09:10;6.20;;;4.50;;
2488;SDS011;1255;48.716;9.124;2023-06-22T11:11:37;5.40;;;4.17;;
2488;SDS011;1255;48.716;9.124;2023-06-22T11:14:04;5.30;;;4.30;;
2488;SDS011;1255;48.716;9.124;2023-06-22T11:16:31;5.73;;;4.97;;
2488;SDS011;1255;48.716;9.124;2023-06-22T11:18:57;5.77;;;4.40;;
2488;SDS011;1255;48.716;9.124;2023-06-22T11:21:24;8.10;;;4.70;;
2488;SDS011;1255;48.716;9.124;2023-06-22T11:23:51;6.90;;;4.57;;
2488;SDS011;1255;48.716;9.124;2023-06-22T11:26:19;4.93;;;4.53;;
2488;SDS011;1255;48.716;9.124;2023-06-22T11:28:46;7.40;;;4.60;;
2488;SDS011;1255;48.716;9.124;2023-06-22T11:31:12;6.03;;;4.20;;
2488;SDS011;1255;48.716;9.124;2023-06-22T11:33:39;6.70;;;4.77;;
2488;SDS011;1255;48.716;9.124;2023-06-22T11:36:06;4.20;;;3.80;;
2488;SDS011;1255;48.716;9.124;2023-06-22T11:38:34;5.10;;;4.53;;
2488;SDS011;1255;48.716;9.124;2023-06-22T11:41:02;4.73;;;4.10;;
2488;SDS011;1255;48.716;9.124;2023-06-22T11:43:30;5.73;;;5.07;;
2488;SDS011;1255;48.716;9.124;2023-06-22T11:45:56;7.03;;;4.57;;
2488;SDS011;1255;48.716;9.124;2023-06-22T11:48:23;4.40;;;3.93;;
2488;SDS011;1255;48.716;9.124;2023-06-22T11:50:50;5.53;;;5.00;;
2488;SDS011;1255;48.716;9.124;2023-06-22T11:53:17;5.10;;;4.40;;
2488;SDS011;1255;48.716;9.124;2023-06-22T11:55:44;5.40;;;4.90;;
2488;SDS011;1255;48.716;9.124;2023-06-22T11:58:10;5.37;;;4.83;;
2488;SDS011;1255;48.716;9.124;2023-06-22T12:00:39;4.43;;;4.00;;
2488;SDS011;1255;48.716;9.124;2023-06-22T12:03:06;7.33;;;4.07;;
2488;SDS011;1255;48.716;9.124;2023-06-22T12:05:34;4.70;;;4.03;;
2488;SDS011;1255;48.716;9.124;2023-06-22T12:08:01;4.23;;;3.70;;
2488;SDS011;1255;48.716;9.124;2023-06-22T12:10:27;4.80;;;4.27;;
2488;SDS011;1255;48.716;9.124;2023-06-22T12:12:54;8.60;;;4.70;;
2488;SDS011;1255;48.716;9.124;2023-06-22T12:15:22;4.73;;;4.10;;
2488;SDS011;1255;48.716;9.124;2023-06-22T12:17:51;7.03;;;4.10;;
2488;SDS011;1255;48.716;9.124;2023-06-22T12:20:17;5.37;;;4.73;;
2488;SDS011;1255;48.716;9.124;2023-06-22T12:22:44;10.00;;;5.20;;
2488;SDS011;1255;48.716;9.124;2023-06-22T12:25:12;6.50;;;4.43;;
2488;SDS011;1255;48.716;9.124;2023-06-22T12:27:39;5.00;;;4.50;;
2488;SDS011;1255;48.716;9.124;2023-06-22T12:30:06;7.40;;;4.60;;
2488;SDS011;1255;48.716;9.124;2023-06-22T12:32:34;4.63;;;4.23;;
2488;SDS011;1255;48.716;9.124;2023-06-22T12:35:02;5.30;;;4.20;;
2488;SDS011;1255;48.716;9.124;2023-06-22T12:37:29;6.30;;;4.60;;
2488;SDS011;1255;48.716;9.124;2023-06-22T12:39:57;5.20;;;4.27;;
2488;SDS011;1255;48.716;9.124;2023-06-22T12:42:24;4.97;;;4.27;;
2488;SDS011;1255;48.716;9.124;2023-06-22T12:44:51;5.23;;;3.90;;
2488;SDS011;1255;48.716;9.124;2023-06-22T12:47:18;7.40;;;4.50;;
2488;SDS011;1255;48.716;9.124;2023-06-22T12:49:45;5.33;;;4.23;;
2488;SDS011;1255;48.716;9.124;2023-06-22T12:52:13;5.60;;;4.57;;
2488;SDS011;1255;48.716;9.124;2023-06-22T12:54:39;4.93;;;4.43;;
2488;SDS011;1255;48.716;9.124;2023-06-22T12:57:06;8.40;;;4.90;;
2488;SDS011;1255;48.716;9.124;2023-06-22T12:59:33;5.90;;;4.43;;
2488;SDS011;1255;48.716;9.124;2023-06-22T13:02:00;5.53;;;4.77;;
2488;SDS011;1255;48.716;9.124;2023-06-22T13:04:26;6.47;;;4.80;;
2488;SDS011;1255;48.716;9.124;2023-06-22T13:06:53;7.30;;;5.47;;
2488;SDS011;1255;48.716;9.124;2023-06-22T13:09:21;4.73;;;4.20;;
2488;SDS011;1255;48.716;9.124;2023-06-22T13:11:48;5.40;;;4.90;;
2488;SDS011;1255;48.716;9.124;2023-06-22T13:14:16;5.17;;;4.40;;
2488;SDS011;1255;48.716;9.124;2023-06-22T13:16:43;5.63;;;4.10;;
2488;SDS011;1255;48.716;9.124;2023-06-22T13:19:10;5.70;;;4.30;;
2488;SDS011;1255;48.716;9.124;2023-06-22T13:21:37;5.87;;;4.50;;
2488;SDS011;1255;48.716;9.124;2023-06-22T13:24:04;5.70;;;4.60;;
2488;SDS011;1255;48.716;9.124;2023-06-22T13:26:33;5.07;;;4.30;;
2488;SDS011;1255;48.716;9.124;2023-06-22T13:29:00;8.33;;;4.63;;
2488;SDS011;1255;48.716;9.124;2023-06-22T13:31:27;6.50;;;5.20;;
2488;SDS011;1255;48.716;9.124;2023-06-22T13:33:53;6.97;;;4.57;;
2488;SDS011;1255;48.716;9.124;2023-06-22T13:36:20;4.80;;;4.00;;
2488;SDS011;1255;48.716;9.124;2023-06-22T13:38:48;6.20;;;4.93;;
2488;SDS011;1255;48.716;9.124;2023-06-22T13:41:15;8.93;;;5.13;;
2488;SDS011;1255;48.716;9.124;2023-06-22T13:43:43;5.83;;;4.70;;
2488;SDS011;1255;48.716;9.124;2023-06-22T13:46:09;5.13;;;4.50;;
2488;SDS011;1255;48.716;9.124;2023-06-22T13:48:36;5.10;;;4.23;;
2488;SDS011;1255;48.716;9.124;2023-06-22T13:51:03;5.90;;;4.00;;
2488;SDS011;1255;48.716;9.124;2023-06-22T13:53:29;5.00;;;4.30;;
2488;SDS011;1255;48.716;9.124;2023-06-22T13:55:56;6.73;;;4.97;;
2488;SDS011;1255;48.716;9.124;2023-06-22T13:58:23;4.90;;;4.43;;
2488;SDS011;1255;48.716;9.124;2023-06-22T14:00:51;5.87;;;5.07;;
2488;SDS011;1255;48.716;9.124;2023-06-22T14:03:18;6.27;;;4.00;;
2488;SDS011;1255;48.716;9.124;2023-06-22T14:05:44;4.60;;;4.00;;
2488;SDS011;1255;48.716;9.124;2023-06-22T14:08:11;5.47;;;4.73;;
2488;SDS011;1255;48.716;9.124;2023-06-22T14:10:38;5.40;;;4.30;;
2488;SDS011;1255;48.716;9.124;2023-06-22T14:13:05;4.10;;;3.60;;
2488;SDS011;1255;48.716;9.124;2023-06-22T14:15:31;4.00;;;3.40;;
2488;SDS011;1255;48.716;9.124;2023-06-22T14:17:59;4.53;;;4.07;;
2488;SDS011;1255;48.716;9.124;2023-06-22T14:20:26;13.50;;;4.70;;
2488;SDS011;1255;48.716;9.124;2023-06-22T14:22:53;5.60;;;4.20;;
2488;SDS011;1255;48.716;9.124;2023-06-22T14:25:20;4.53;;;3.80;;
2488;SDS011;1255;48.716;9.124;2023-06-22T14:27:46;8.30;;;3.27;;
2488;SDS011;1255;48.716;9.124;2023-06-22T14:30:13;6.63;;;3.43;;
2488;SDS011;1255;48.716;9.124;2023-06-22T14:32:40;3.63;;;2.90;;
2488;SDS011;1255;48.716;9.124;2023-06-22T14:35:10;3.40;;;3.10;;
2488;SDS011;1255;48.716;9.124;2023-06-22T14:37:37;8.17;;;3.70;;
2488;SDS011;1255;48.716;9.124;2023-06-22T14:40:04;4.77;;;3.17;;
2488;SDS011;1255;48.716;9.124;2023-06-22T14:42:31;4.30;;;2.90;;
2488;SDS011;1255;48.716;9.124;2023-06-22T14:44:57;4.80;;;3.10;;
2488;SDS011;1255;48.716;9.124;2023-06-22T14:47:24;4.30;;;2.90;;
2488;SDS011;1255;48.716;9.124;2023-06-22T14:49:51;5.13;;;2.80;;
2488;SDS011;1255;48.716;9.124;2023-06-22T14:52:19;5.50;;;2.87;;
2488;SDS011;1255;48.716;9.124;2023-06-22T14:54:46;4.80;;;3.00;;
2488;SDS011;1255;48.716;9.124;2023-06-22T14:57:12;5.67;;;2.93;;
2488;SDS011;1255;48.716;9.124;2023-06-22T14:59:43;5.50;;;2.80;;
2488;SDS011;1255;48.716;9.124;2023-06-22T15:02:10;7.13;;;3.17;;
2488;SDS011;1255;48.716;9.124;2023-06-22T15:04:36;4.67;;;2.63;;
2488;SDS011;1255;48.716;9.124;2023-06-22T15:07:03;5.37;;;3.20;;
2488;SDS011;1255;48.716;9.124;2023-06-22T15:09:32;5.50;;;3.00;;
2488;SDS011;1255;48.716;9.124;2023-06-22T15:11:58;4.47;;;3.10;;
2488;SDS011;1255;48.716;9.124;2023-06-22T15:14:26;4.13;;;2.57;;
2488;SDS011;1255;48.716;9.124;2023-06-22T15:16:53;5.97;;;3.53;;